createdAt,value
2019-03-16T00:02:29.282Z,100259.80
2019-03-16T00:07:33.153Z,100266.05
2019-03-16T00:12:34.234Z,100262.52
2019-03-16T00:17:36.712Z,100260.75
2019-03-16T00:22:39.170Z,100261.95
2019-03-16T00:27:41.657Z,100270.38
2019-03-16T00:32:44.092Z,100270.38
2019-03-16T00:37:46.562Z,100274.69
2019-03-16T00:42:49.028Z,100277.23
2019-03-16T00:47:51.496Z,100272.33
2019-03-16T00:52:53.971Z,100275.45
2019-03-16T00:57:56.433Z,100278.59
2019-03-16T01:02:58.912Z,100282.13
2019-03-16T01:08:01.369Z,100292.91
2019-03-16T01:13:03.827Z,100299.78
2019-03-16T01:18:06.275Z,100304.69
2019-03-16T01:23:08.730Z,100305.27
2019-03-16T01:28:11.203Z,100306.23
2019-03-16T01:33:13.664Z,100294.28
2019-03-16T01:38:16.142Z,100290.34
2019-03-16T01:43:18.605Z,100294.08
2019-03-16T01:48:21.066Z,100301.09
2019-03-16T01:53:23.533Z,100305.44
2019-03-16T01:58:25.993Z,100290.34
2019-03-16T02:03:28.445Z,100295.24
2019-03-16T02:08:30.913Z,100296.80
2019-03-16T02:13:33.383Z,100302.07
2019-03-16T02:18:35.860Z,100307.55
2019-03-16T02:23:38.330Z,100310.93
2019-03-16T02:28:40.782Z,100311.14
2019-03-16T02:33:43.258Z,100338.39
2019-03-16T02:38:45.727Z,100331.89
2019-03-16T02:43:48.208Z,100331.52
2019-03-16T02:48:50.663Z,100326.20
2019-03-16T02:53:53.133Z,100316.42
2019-03-16T02:58:55.618Z,100326.19
2019-03-16T03:03:58.094Z,100328.73
2019-03-16T03:09:00.577Z,100325.76
2019-03-16T03:14:03.056Z,100326.35
2019-03-16T03:19:05.581Z,100321.09
2019-03-16T03:24:07.992Z,100324.45
2019-03-16T03:29:10.458Z,100314.05
2019-03-16T03:34:12.922Z,100321.13
2019-03-16T03:39:15.374Z,100319.73
2019-03-16T03:44:17.826Z,100326.19
2019-03-16T03:49:20.282Z,100323.28
2019-03-16T03:54:22.742Z,100316.58
2019-03-16T03:59:25.220Z,100324.83
2019-03-16T04:04:27.676Z,100322.46
2019-03-16T04:09:30.139Z,100322.45
2019-03-16T04:14:32.601Z,100320.86
2019-03-16T04:19:35.055Z,100318.90
2019-03-16T04:24:37.527Z,100316.92
2019-03-16T04:29:39.984Z,100320.67
2019-03-16T04:34:45.023Z,100315.37
2019-03-16T04:39:44.973Z,100303.19
2019-03-16T04:44:47.448Z,100293.79
2019-03-16T04:49:49.935Z,100297.33
2019-03-16T04:54:52.385Z,100293.00
2019-03-16T04:59:54.919Z,100302.00
2019-03-16T05:04:57.376Z,100315.72
2019-03-16T05:09:59.830Z,100309.28
2019-03-16T05:15:02.322Z,100321.81
2019-03-16T05:20:10.650Z,100310.67
2019-03-16T05:25:13.175Z,100312.81
2019-03-16T05:30:15.598Z,100320.88
2019-03-16T05:35:18.046Z,100318.89
2019-03-16T05:40:20.604Z,100329.09
2019-03-16T05:45:23.066Z,100346.19
2019-03-16T05:50:25.525Z,100340.86
2019-03-16T05:55:27.991Z,100347.16
2019-03-16T06:00:30.503Z,100349.35
2019-03-16T06:05:32.983Z,100348.73
2019-03-16T06:10:35.438Z,100343.30
2019-03-16T06:15:37.909Z,100347.70
2019-03-16T06:20:40.370Z,100342.03
2019-03-16T06:25:42.897Z,100347.59
2019-03-16T06:30:45.352Z,100348.77
2019-03-16T06:35:47.798Z,100348.40
2019-03-16T06:40:50.272Z,100346.85
2019-03-16T06:45:52.716Z,100360.80
2019-03-16T06:50:55.183Z,100352.58
2019-03-16T06:55:57.645Z,100370.34
2019-03-16T07:01:00.127Z,100368.42
2019-03-16T07:06:02.579Z,100374.23
2019-03-16T07:11:05.023Z,100373.48
2019-03-16T07:16:07.478Z,100373.91
2019-03-16T07:21:09.917Z,100380.09
2019-03-16T07:26:15.144Z,100393.70
2019-03-16T07:31:14.854Z,100406.67
2019-03-16T07:36:17.311Z,100395.12
2019-03-16T07:41:19.768Z,100407.49
2019-03-16T07:46:22.234Z,100428.89
2019-03-16T07:51:24.706Z,100445.17
2019-03-16T07:56:27.183Z,100460.50
2019-03-16T08:01:29.636Z,100453.50
2019-03-16T08:06:33.377Z,100459.37
2019-03-16T08:11:34.567Z,100454.61
2019-03-16T08:16:37.015Z,100462.66
2019-03-16T08:21:39.463Z,100461.91
2019-03-16T08:26:41.916Z,100465.41
2019-03-16T08:31:44.356Z,100465.55
2019-03-16T08:36:46.808Z,100460.39
2019-03-16T08:41:49.283Z,100471.69
2019-03-16T08:46:51.707Z,100475.98
2019-03-16T08:51:54.156Z,100473.82
2019-03-16T08:56:56.605Z,100462.77
2019-03-16T09:01:59.059Z,100460.06
2019-03-16T09:07:01.515Z,100451.30
2019-03-16T09:12:04.020Z,100449.84
2019-03-16T09:17:08.840Z,100461.65
2019-03-16T09:22:08.921Z,100463.90
2019-03-16T09:27:11.520Z,100467.66
2019-03-16T09:32:13.980Z,100464.20
2019-03-16T09:37:16.450Z,100454.36
2019-03-16T09:42:18.913Z,100449.21
2019-03-16T09:47:21.361Z,100445.33
2019-03-16T09:52:23.825Z,100431.44
2019-03-16T09:57:26.298Z,100435.27
2019-03-16T10:02:28.720Z,100443.63
2019-03-16T10:07:31.191Z,100434.27
2019-03-16T10:12:33.632Z,100420.04
2019-03-16T10:17:36.078Z,100422.53
2019-03-16T10:22:38.513Z,100406.95
2019-03-16T10:27:40.962Z,100405.77
2019-03-16T10:32:43.425Z,100401.38
2019-03-16T10:37:45.883Z,100399.38
2019-03-16T10:42:48.338Z,100390.81
2019-03-16T10:47:50.789Z,100383.66
2019-03-16T10:52:54.994Z,100380.07
2019-03-16T10:57:55.695Z,100389.73
2019-03-16T11:02:58.148Z,100384.67
2019-03-16T11:08:00.604Z,100389.36
2019-03-16T11:13:03.059Z,100383.91
2019-03-16T11:18:05.516Z,100370.13
2019-03-16T11:23:07.962Z,100371.81
2019-03-16T11:28:10.407Z,100372.17
2019-03-16T11:33:12.910Z,100377.61
2019-03-16T11:38:15.350Z,100376.42
2019-03-16T11:43:17.815Z,100373.20
2019-03-16T11:48:20.357Z,100364.53
2019-03-16T11:53:22.731Z,100347.01
2019-03-16T11:58:25.189Z,100344.20
2019-03-16T12:03:27.658Z,100348.01
2019-03-16T12:08:30.120Z,100335.63
2019-03-16T12:13:32.579Z,100334.16
2019-03-16T12:18:35.082Z,100335.17
2019-03-16T12:23:37.535Z,100341.52
2019-03-16T12:28:40.030Z,100343.68
2019-03-16T12:33:42.479Z,100336.84
2019-03-16T12:38:44.944Z,100323.14
2019-03-16T12:43:47.431Z,100325.13
2019-03-16T12:48:49.960Z,100327.11
2019-03-16T12:53:52.347Z,100315.45
2019-03-16T12:58:54.778Z,100299.22
2019-03-16T13:03:57.227Z,100300.68
2019-03-16T13:08:59.673Z,100301.80
2019-03-16T13:14:02.161Z,100297.16
2019-03-16T13:19:04.590Z,100302.09
2019-03-16T13:24:07.032Z,100289.11
2019-03-16T13:29:09.495Z,100282.34
2019-03-16T13:34:11.949Z,100276.48
2019-03-16T13:39:14.420Z,100265.92
2019-03-16T13:44:16.873Z,100255.98
2019-03-16T13:49:19.372Z,100258.85
2019-03-16T13:54:21.863Z,100249.20
2019-03-16T13:59:24.314Z,100239.95
2019-03-16T14:04:26.780Z,100250.23
2019-03-16T14:09:29.216Z,100237.94
2019-03-16T14:14:31.682Z,100235.34
2019-03-16T14:19:34.141Z,100227.08
2019-03-16T14:24:36.631Z,100232.30
2019-03-16T14:29:39.094Z,100222.30
2019-03-16T14:34:41.558Z,100219.34
2019-03-16T14:39:44.223Z,100211.27
2019-03-16T14:44:46.465Z,100200.40
2019-03-16T14:49:48.908Z,100190.13
2019-03-16T14:54:51.440Z,100180.23
2019-03-16T14:59:53.883Z,100168.03
2019-03-16T15:04:56.372Z,100166.44
2019-03-16T15:09:58.842Z,100147.81
2019-03-16T15:15:01.321Z,100143.08
2019-03-16T15:20:03.788Z,100144.05
2019-03-16T15:25:06.236Z,100135.79
2019-03-16T15:30:11.423Z,100138.98
2019-03-16T15:35:13.876Z,100132.41
2019-03-16T15:40:16.333Z,100128.93
2019-03-16T15:45:27.544Z,100127.38
2019-03-16T15:50:30.016Z,100116.04
2019-03-16T15:55:32.476Z,100107.89
2019-03-16T16:00:34.941Z,100105.34
2019-03-16T16:05:37.501Z,100088.78
2019-03-16T16:10:40.858Z,100083.39
2019-03-16T16:15:42.410Z,100076.16
2019-03-16T16:20:44.861Z,100065.54
2019-03-16T16:25:47.332Z,100055.11
2019-03-16T16:30:49.786Z,100039.62
2019-03-16T16:35:52.241Z,100042.45
2019-03-16T16:40:54.693Z,100028.17
2019-03-16T16:45:57.128Z,100032.33
2019-03-16T16:50:59.589Z,100032.56
2019-03-16T16:56:02.068Z,100028.48
2019-03-16T17:01:04.520Z,100021.45
2019-03-16T17:06:07.015Z,100008.14
2019-03-16T17:11:09.471Z,100005.62
2019-03-16T17:16:11.919Z,99997.78
2019-03-16T17:21:14.373Z,99990.91
2019-03-16T17:26:16.839Z,99992.06
2019-03-16T17:31:19.279Z,99987.20
2019-03-16T17:36:22.362Z,99984.05
2019-03-16T17:41:24.265Z,99974.64
2019-03-16T17:46:26.688Z,99973.07
2019-03-16T17:51:29.273Z,99967.58
2019-03-16T17:56:31.720Z,99965.40
2019-03-16T18:01:34.199Z,99963.22
2019-03-16T18:06:36.672Z,99962.84
2019-03-16T18:11:39.121Z,99971.11
2019-03-16T18:16:41.671Z,99980.12
2019-03-16T18:21:44.147Z,99982.48
2019-03-16T18:26:46.619Z,99981.89
2019-03-16T18:31:49.054Z,99986.00
2019-03-16T18:36:51.506Z,99976.77
2019-03-16T18:41:53.983Z,99965.80
2019-03-16T18:46:56.481Z,99966.00
2019-03-16T18:51:58.899Z,99956.77
2019-03-16T18:57:01.353Z,99959.04
2019-03-16T19:02:03.914Z,99951.69
2019-03-16T19:07:06.328Z,99943.62
2019-03-16T19:12:08.813Z,99933.18
2019-03-16T19:17:11.289Z,99925.26
2019-03-16T19:22:13.776Z,99915.58
2019-03-16T19:27:18.999Z,99911.42
2019-03-16T19:32:18.705Z,99904.67
2019-03-16T19:37:21.465Z,99899.16
2019-03-16T19:42:23.628Z,99892.48
2019-03-16T19:47:26.102Z,99899.08
2019-03-16T19:52:28.571Z,99894.70
2019-03-16T19:57:31.020Z,99882.98
2019-03-16T20:02:45.698Z,99881.05
2019-03-16T20:07:35.968Z,99882.23
2019-03-16T20:12:38.400Z,99885.75
2019-03-16T20:17:40.850Z,99883.38
2019-03-16T20:22:43.299Z,99881.13
2019-03-16T20:27:45.785Z,99873.33
2019-03-16T20:32:58.487Z,99883.80
2019-03-16T20:37:50.716Z,99880.64
2019-03-16T20:42:53.169Z,99882.42
2019-03-16T20:47:55.657Z,99885.48
2019-03-16T20:52:58.115Z,99879.03
2019-03-16T20:58:00.567Z,99869.63
2019-03-16T21:03:15.298Z,99862.08
2019-03-16T21:08:05.496Z,99848.87
2019-03-16T21:13:07.934Z,99852.50
2019-03-16T21:18:10.404Z,99841.48
2019-03-16T21:23:12.877Z,99840.48
2019-03-16T21:28:16.131Z,99829.98
2019-03-16T21:33:28.846Z,99824.49
2019-03-16T21:38:20.305Z,99815.59
2019-03-16T21:43:22.926Z,99816.66
2019-03-16T21:48:25.422Z,99809.57
2019-03-16T21:53:27.869Z,99815.66
2019-03-16T21:58:30.323Z,99804.39
2019-03-16T22:03:41.615Z,99799.94
2019-03-16T22:08:35.640Z,99790.38
2019-03-16T22:13:38.104Z,99784.80
2019-03-16T22:18:40.570Z,99783.64
2019-03-16T22:23:43.058Z,99773.04
2019-03-16T22:28:45.523Z,99778.13
2019-03-16T22:33:54.266Z,99780.08
2019-03-16T22:38:50.497Z,99762.53
2019-03-16T22:43:52.951Z,99774.59
2019-03-16T22:48:55.414Z,99761.05
2019-03-16T22:53:57.940Z,99753.49
2019-03-16T22:59:00.344Z,99747.51
2019-03-16T23:04:07.025Z,99739.23
2019-03-16T23:09:05.273Z,99727.14
2019-03-16T23:14:07.728Z,99719.88
2019-03-16T23:19:10.172Z,99712.16
2019-03-16T23:24:12.666Z,99701.98
2019-03-16T23:29:15.146Z,99694.05
2019-03-16T23:34:19.390Z,99686.41
2019-03-16T23:39:20.085Z,99682.14
2019-03-16T23:44:22.526Z,99675.70
2019-03-16T23:49:24.992Z,99671.22
2019-03-16T23:54:27.460Z,99670.58
2019-03-16T23:59:29.876Z,99661.11
